createdAt,value
2017-12-31T00:00:40.197Z,1.08
2017-12-31T00:03:07.832Z,1.00
2017-12-31T00:05:35.396Z,0.90
2017-12-31T00:08:02.956Z,1.30
2017-12-31T00:10:31.330Z,2.45
2017-12-31T00:12:59.680Z,1.05
2017-12-31T00:15:27.244Z,1.20
2017-12-31T00:17:54.848Z,3.62
2017-12-31T00:20:22.409Z,1.00
2017-12-31T00:22:50.044Z,2.47
2017-12-31T00:25:17.602Z,1.27
2017-12-31T00:27:45.951Z,1.20
2017-12-31T00:30:13.575Z,1.30
2017-12-31T00:32:41.159Z,2.35
2017-12-31T00:35:08.738Z,7.85
2017-12-31T00:37:36.343Z,1.30
2017-12-31T00:40:03.982Z,1.20
2017-12-31T00:42:31.537Z,2.00
2017-12-31T00:44:59.101Z,1.33
2017-12-31T00:47:26.726Z,2.37
2017-12-31T00:49:54.372Z,3.78
2017-12-31T00:52:21.965Z,2.65
2017-12-31T00:54:49.580Z,3.70
2017-12-31T00:57:17.142Z,1.83
2017-12-31T00:59:44.700Z,4.00
2017-12-31T01:02:12.304Z,1.48
2017-12-31T01:04:39.918Z,7.85
2017-12-31T01:07:07.536Z,7.53
2017-12-31T01:09:35.134Z,6.65
2017-12-31T01:12:03.492Z,4.10
2017-12-31T01:14:31.040Z,8.13
2017-12-31T01:16:58.597Z,2.87
2017-12-31T01:19:26.196Z,5.37
2017-12-31T01:21:54.557Z,4.45
2017-12-31T01:24:22.124Z,8.13
2017-12-31T01:26:50.467Z,6.03
2017-12-31T01:29:18.064Z,7.15
2017-12-31T01:31:46.406Z,6.53
2017-12-31T01:34:14.004Z,6.70
2017-12-31T01:36:42.330Z,2.85
2017-12-31T01:39:09.923Z,5.68
2017-12-31T01:41:37.532Z,13.27
2017-12-31T01:44:05.128Z,9.05
2017-12-31T01:46:32.672Z,8.02
2017-12-31T01:49:03.200Z,10.88
2017-12-31T01:51:30.780Z,11.70
2017-12-31T01:53:58.388Z,5.80
2017-12-31T01:56:26.802Z,6.87
2017-12-31T01:58:54.364Z,12.32
2017-12-31T02:01:22.024Z,14.18
2017-12-31T02:03:49.590Z,11.48
2017-12-31T02:06:17.176Z,14.68
2017-12-31T02:08:44.807Z,7.05
2017-12-31T02:11:12.416Z,20.40
2017-12-31T02:13:40.769Z,12.10
2017-12-31T02:16:08.383Z,27.25
2017-12-31T02:18:35.940Z,9.80
2017-12-31T02:21:04.433Z,14.30
2017-12-31T02:23:32.029Z,6.90
2017-12-31T02:25:59.596Z,17.12
2017-12-31T02:28:27.172Z,21.37
2017-12-31T02:30:54.781Z,9.10
2017-12-31T02:33:22.328Z,19.77
2017-12-31T02:35:49.885Z,15.45
2017-12-31T02:38:17.566Z,7.37
2017-12-31T02:40:45.272Z,8.60
2017-12-31T02:43:12.863Z,27.92
2017-12-31T02:45:41.214Z,12.63
2017-12-31T02:48:08.827Z,10.75
2017-12-31T02:50:36.389Z,5.07
2017-12-31T02:53:03.994Z,6.43
2017-12-31T02:55:31.554Z,18.02
2017-12-31T02:57:59.143Z,12.70
2017-12-31T03:00:26.703Z,6.72
2017-12-31T03:02:55.101Z,12.98
2017-12-31T03:05:22.648Z,17.00
2017-12-31T03:07:50.981Z,3.70
2017-12-31T03:10:18.586Z,13.77
2017-12-31T03:12:46.911Z,11.30
2017-12-31T03:15:14.556Z,13.23
2017-12-31T03:17:42.877Z,14.55
2017-12-31T03:20:10.548Z,8.15
2017-12-31T03:22:38.915Z,14.32
2017-12-31T03:25:06.489Z,6.35
2017-12-31T03:27:34.864Z,28.50
2017-12-31T03:30:02.421Z,7.22
2017-12-31T03:32:30.015Z,6.12
2017-12-31T03:34:57.627Z,8.77
2017-12-31T03:37:25.228Z,11.35
2017-12-31T03:39:53.548Z,7.37
2017-12-31T03:42:21.133Z,11.77
2017-12-31T03:44:48.759Z,5.68
2017-12-31T03:47:16.349Z,17.80
2017-12-31T03:49:43.911Z,6.40
2017-12-31T03:52:11.538Z,3.60
2017-12-31T03:54:39.139Z,3.72
2017-12-31T03:57:06.903Z,4.55
2017-12-31T03:59:34.482Z,4.72
2017-12-31T04:02:02.849Z,6.57
2017-12-31T04:04:30.466Z,1.80
2017-12-31T04:06:58.056Z,11.12
2017-12-31T04:09:25.618Z,6.05
2017-12-31T04:11:53.205Z,3.10
2017-12-31T04:14:20.766Z,6.82
2017-12-31T04:16:48.366Z,2.28
2017-12-31T04:19:15.908Z,4.87
2017-12-31T04:21:44.338Z,2.55
2017-12-31T04:24:11.900Z,5.85
2017-12-31T04:26:39.491Z,5.00
2017-12-31T04:29:07.062Z,3.30
2017-12-31T04:31:35.424Z,5.43
2017-12-31T04:34:02.977Z,5.05
2017-12-31T04:36:31.359Z,4.12
2017-12-31T04:38:59.059Z,3.50
2017-12-31T04:41:26.621Z,15.25
2017-12-31T04:43:54.216Z,3.90
2017-12-31T04:46:21.801Z,1.55
2017-12-31T04:48:49.357Z,5.50
2017-12-31T04:51:16.962Z,5.43
2017-12-31T04:53:44.619Z,6.05
2017-12-31T04:56:12.964Z,8.77
2017-12-31T04:58:40.523Z,6.65
2017-12-31T05:01:08.129Z,9.27
2017-12-31T05:03:35.712Z,5.87
2017-12-31T05:06:03.273Z,5.72
2017-12-31T05:08:30.983Z,1.70
2017-12-31T05:10:58.537Z,4.50
2017-12-31T05:13:26.104Z,4.40
2017-12-31T05:15:53.830Z,4.95
2017-12-31T05:18:21.421Z,2.45
2017-12-31T05:20:49.089Z,6.43
2017-12-31T05:23:16.793Z,10.60
2017-12-31T05:25:45.230Z,4.18
2017-12-31T05:28:12.782Z,5.20
2017-12-31T05:30:40.348Z,1.87
2017-12-31T05:33:07.949Z,3.12
2017-12-31T05:35:35.504Z,3.35
2017-12-31T05:38:03.826Z,1.70
2017-12-31T05:40:31.535Z,5.30
2017-12-31T05:42:59.898Z,2.35
2017-12-31T05:45:27.497Z,7.40
2017-12-31T05:47:55.096Z,8.20
2017-12-31T05:50:22.654Z,4.53
2017-12-31T05:52:50.268Z,3.30
2017-12-31T05:55:17.833Z,4.15
2017-12-31T05:57:45.594Z,6.65
2017-12-31T06:00:13.183Z,3.20
2017-12-31T06:02:40.753Z,12.55
2017-12-31T06:05:08.473Z,6.62
2017-12-31T06:07:36.042Z,3.90
2017-12-31T06:10:03.592Z,5.32
2017-12-31T06:12:31.960Z,4.35
2017-12-31T06:15:00.611Z,4.90
2017-12-31T06:17:28.976Z,6.15
2017-12-31T06:19:56.539Z,2.97
2017-12-31T06:22:24.140Z,5.20
2017-12-31T06:24:52.468Z,11.12
2017-12-31T06:27:20.032Z,6.00
2017-12-31T06:29:47.639Z,7.65
2017-12-31T06:32:16.025Z,6.97
2017-12-31T06:34:44.439Z,1.67
2017-12-31T06:37:11.989Z,3.37
2017-12-31T06:39:39.579Z,3.33
2017-12-31T06:42:07.142Z,4.93
2017-12-31T06:44:34.717Z,2.42
2017-12-31T06:47:02.365Z,7.80
2017-12-31T06:49:30.052Z,6.80
2017-12-31T06:51:57.617Z,4.68
2017-12-31T06:54:25.180Z,6.00
2017-12-31T06:56:52.845Z,1.42
2017-12-31T06:59:20.413Z,4.43
2017-12-31T07:01:48.008Z,2.55
2017-12-31T07:04:15.740Z,13.80
2017-12-31T07:06:44.122Z,1.70
2017-12-31T07:09:12.515Z,6.62
2017-12-31T07:11:40.116Z,2.20
2017-12-31T07:14:07.721Z,2.20
2017-12-31T07:16:36.040Z,5.70
2017-12-31T07:19:03.667Z,2.08
2017-12-31T07:21:31.238Z,8.95
2017-12-31T07:23:59.584Z,2.62
2017-12-31T07:26:27.271Z,2.75
2017-12-31T07:28:55.613Z,6.30
2017-12-31T07:31:23.203Z,2.45
2017-12-31T07:33:51.576Z,2.40
2017-12-31T07:36:19.153Z,6.53
2017-12-31T07:38:47.471Z,4.57
2017-12-31T07:41:15.053Z,3.40
2017-12-31T07:43:42.652Z,3.30
2017-12-31T07:46:11.004Z,7.37
2017-12-31T07:48:38.600Z,5.05
2017-12-31T07:51:06.921Z,4.15
2017-12-31T07:53:34.513Z,3.65
2017-12-31T07:56:02.077Z,6.90
2017-12-31T07:58:30.466Z,5.30
2017-12-31T08:00:58.854Z,4.18
2017-12-31T08:03:27.181Z,17.02
2017-12-31T08:05:54.763Z,5.47
2017-12-31T08:08:22.331Z,8.35
2017-12-31T08:10:49.917Z,7.65
2017-12-31T08:13:17.580Z,2.72
2017-12-31T08:15:45.939Z,4.05
2017-12-31T08:18:14.463Z,1.60
2017-12-31T08:20:42.016Z,6.80
2017-12-31T08:23:09.599Z,6.12
2017-12-31T08:25:37.193Z,9.07
2017-12-31T08:28:04.795Z,8.23
2017-12-31T08:30:32.350Z,2.40
2017-12-31T08:32:59.964Z,6.78
2017-12-31T08:35:27.573Z,7.15
2017-12-31T08:37:55.129Z,4.35
2017-12-31T08:40:22.707Z,10.80
2017-12-31T08:42:50.317Z,7.20
2017-12-31T08:45:17.879Z,10.65
2017-12-31T08:47:45.462Z,5.43
2017-12-31T08:50:13.858Z,4.05
2017-12-31T08:52:41.448Z,11.85
2017-12-31T08:55:09.005Z,9.25
2017-12-31T08:57:36.604Z,15.00
2017-12-31T09:00:04.165Z,4.90
2017-12-31T09:02:31.724Z,3.50
2017-12-31T09:04:59.330Z,8.82
2017-12-31T09:07:27.753Z,4.95
2017-12-31T09:09:55.356Z,4.25
2017-12-31T09:12:23.710Z,8.45
2017-12-31T09:14:51.277Z,6.80
2017-12-31T09:17:19.633Z,8.27
2017-12-31T09:19:47.230Z,9.63
2017-12-31T09:22:14.888Z,5.85
2017-12-31T09:24:43.251Z,7.87
2017-12-31T09:27:11.600Z,10.52
2017-12-31T09:29:39.214Z,7.28
2017-12-31T09:32:07.536Z,6.80
2017-12-31T09:34:35.084Z,4.78
2017-12-31T09:37:02.679Z,5.37
2017-12-31T09:39:30.233Z,2.42
2017-12-31T09:41:57.825Z,4.78
2017-12-31T09:44:26.228Z,8.35
2017-12-31T09:46:53.827Z,12.10
2017-12-31T09:49:21.415Z,10.93
2017-12-31T09:51:48.968Z,4.25
2017-12-31T09:54:16.557Z,6.25
2017-12-31T09:56:44.123Z,5.75
2017-12-31T09:59:12.495Z,2.55
2017-12-31T10:01:40.853Z,5.37
2017-12-31T10:04:08.451Z,3.30
2017-12-31T10:06:36.041Z,11.12
2017-12-31T10:09:03.636Z,2.20
2017-12-31T10:11:32.022Z,6.15
2017-12-31T10:14:00.345Z,5.03
2017-12-31T10:16:27.910Z,6.37
2017-12-31T10:18:55.503Z,1.77
2017-12-31T10:21:23.076Z,5.45
2017-12-31T10:23:51.467Z,6.00
2017-12-31T10:26:19.790Z,4.43
2017-12-31T10:28:47.349Z,2.47
2017-12-31T10:31:15.782Z,3.70
2017-12-31T10:33:44.113Z,5.22
2017-12-31T10:36:11.920Z,4.65
2017-12-31T10:38:40.260Z,5.57
2017-12-31T10:41:07.865Z,5.40
2017-12-31T10:43:36.222Z,3.00
2017-12-31T10:46:03.835Z,11.48
2017-12-31T10:48:31.432Z,4.05
2017-12-31T10:50:59.002Z,4.90
2017-12-31T10:53:26.606Z,3.53
2017-12-31T10:55:54.981Z,8.10
2017-12-31T10:58:23.397Z,11.55
2017-12-31T11:00:56.556Z,5.12
2017-12-31T11:03:24.928Z,11.00
2017-12-31T11:05:53.249Z,4.87
2017-12-31T11:08:20.838Z,2.30
2017-12-31T11:10:48.418Z,1.80
2017-12-31T11:13:16.778Z,12.13
2017-12-31T11:15:44.330Z,7.28
2017-12-31T11:18:11.935Z,7.65
2017-12-31T11:20:39.549Z,6.50
2017-12-31T11:23:07.109Z,5.62
2017-12-31T11:25:34.718Z,13.45
2017-12-31T11:28:03.036Z,3.37
2017-12-31T11:30:30.634Z,11.60
2017-12-31T11:32:58.195Z,5.93
2017-12-31T11:35:25.785Z,6.53
2017-12-31T11:37:53.402Z,3.67
2017-12-31T11:40:21.012Z,5.07
2017-12-31T11:42:48.579Z,5.80
2017-12-31T11:45:16.148Z,5.20
2017-12-31T11:47:43.765Z,2.25
2017-12-31T11:50:12.088Z,2.95
2017-12-31T11:52:39.675Z,3.40
2017-12-31T11:55:07.268Z,6.18
2017-12-31T11:57:35.594Z,1.98
2017-12-31T12:00:03.209Z,8.82
2017-12-31T12:02:31.538Z,9.38
2017-12-31T12:04:59.133Z,7.03
2017-12-31T12:07:26.695Z,2.08
2017-12-31T12:09:54.305Z,7.90
2017-12-31T12:12:21.869Z,4.60
2017-12-31T12:14:49.441Z,4.97
2017-12-31T12:17:17.028Z,4.65
2017-12-31T12:19:44.590Z,3.80
2017-12-31T12:22:12.194Z,8.50
2017-12-31T12:24:39.797Z,6.70
2017-12-31T12:27:07.360Z,4.30
2017-12-31T12:29:34.969Z,1.85
2017-12-31T12:32:02.525Z,10.73
2017-12-31T12:34:30.846Z,9.10
2017-12-31T12:36:58.442Z,5.37
2017-12-31T12:39:25.996Z,4.18
2017-12-31T12:41:53.592Z,2.35
2017-12-31T12:44:21.151Z,2.25
2017-12-31T12:46:49.459Z,5.12
2017-12-31T12:49:17.053Z,4.60
2017-12-31T12:51:44.670Z,4.37
2017-12-31T12:54:12.268Z,7.97
2017-12-31T12:56:39.832Z,3.17
2017-12-31T12:59:07.439Z,3.33
2017-12-31T13:01:34.997Z,2.00
2017-12-31T13:04:02.552Z,7.10
2017-12-31T13:06:30.149Z,3.70
2017-12-31T13:08:57.745Z,2.87
2017-12-31T13:11:25.318Z,4.12
2017-12-31T13:13:53.688Z,3.17
2017-12-31T13:16:21.251Z,4.30
2017-12-31T13:18:48.831Z,5.72
2017-12-31T13:21:17.153Z,2.20
2017-12-31T13:23:44.728Z,4.45
2017-12-31T13:26:12.335Z,2.30
2017-12-31T13:28:40.660Z,6.00
2017-12-31T13:31:08.261Z,9.65
2017-12-31T13:33:36.587Z,4.00
2017-12-31T13:36:04.140Z,3.55
2017-12-31T13:38:31.740Z,4.05
2017-12-31T13:40:59.302Z,5.80
2017-12-31T13:43:26.857Z,5.87
2017-12-31T13:45:54.456Z,3.10
2017-12-31T13:48:22.801Z,3.40
2017-12-31T13:50:50.344Z,4.80
2017-12-31T13:53:17.932Z,8.43
2017-12-31T13:55:45.508Z,2.62
2017-12-31T13:58:13.904Z,3.30
2017-12-31T14:00:41.476Z,10.57
2017-12-31T14:03:09.028Z,4.32
2017-12-31T14:05:36.620Z,2.90
2017-12-31T14:08:04.221Z,6.82
2017-12-31T14:10:32.559Z,4.22
2017-12-31T14:13:00.117Z,3.40
2017-12-31T14:15:27.739Z,10.23
2017-12-31T14:17:56.111Z,11.48
2017-12-31T14:20:24.467Z,5.40
2017-12-31T14:22:52.112Z,3.67
2017-12-31T14:25:19.668Z,3.72
2017-12-31T14:27:47.259Z,7.15
2017-12-31T14:30:14.816Z,2.37
2017-12-31T14:32:42.440Z,3.60
2017-12-31T14:35:10.030Z,2.22
2017-12-31T14:37:37.588Z,4.55
2017-12-31T14:40:05.190Z,2.17
2017-12-31T14:42:32.748Z,17.12
2017-12-31T14:45:00.337Z,3.53
2017-12-31T14:47:27.920Z,5.57
2017-12-31T14:49:55.525Z,5.18
2017-12-31T14:52:23.873Z,3.60
2017-12-31T14:54:51.441Z,2.00
2017-12-31T14:57:19.813Z,5.93
2017-12-31T14:59:47.408Z,2.62
2017-12-31T15:02:14.993Z,2.35
2017-12-31T15:04:42.596Z,3.58
2017-12-31T15:07:10.941Z,4.07
2017-12-31T15:09:38.528Z,3.83
2017-12-31T15:12:06.131Z,4.85
2017-12-31T15:14:33.722Z,3.60
2017-12-31T15:17:01.320Z,4.03
2017-12-31T15:19:28.929Z,2.12
2017-12-31T15:21:56.484Z,2.83
2017-12-31T15:24:24.038Z,2.08
2017-12-31T15:26:51.645Z,2.20
2017-12-31T15:29:19.204Z,3.05
2017-12-31T15:31:46.819Z,2.17
2017-12-31T15:34:14.372Z,2.60
2017-12-31T15:36:42.694Z,2.25
2017-12-31T15:39:10.289Z,5.03
2017-12-31T15:41:37.853Z,3.17
2017-12-31T15:44:06.260Z,2.37
2017-12-31T15:46:33.812Z,2.58
2017-12-31T15:49:02.178Z,9.93
2017-12-31T15:51:30.504Z,2.85
2017-12-31T15:53:58.098Z,3.28
2017-12-31T15:56:25.708Z,9.60
2017-12-31T15:58:53.260Z,4.87
2017-12-31T16:01:20.819Z,4.00
2017-12-31T16:03:48.413Z,3.15
2017-12-31T16:06:15.973Z,3.50
2017-12-31T16:08:43.588Z,7.25
2017-12-31T16:11:11.921Z,6.18
2017-12-31T16:13:39.475Z,2.53
2017-12-31T16:16:07.085Z,3.65
2017-12-31T16:18:35.441Z,4.78
2017-12-31T16:21:03.055Z,4.57
2017-12-31T16:23:30.627Z,4.68
2017-12-31T16:25:58.239Z,3.42
2017-12-31T16:28:26.590Z,7.95
2017-12-31T16:30:58.006Z,2.80
2017-12-31T16:33:25.575Z,5.68
2017-12-31T16:35:53.193Z,8.75
2017-12-31T16:38:21.528Z,7.22
2017-12-31T16:40:49.388Z,9.52
2017-12-31T16:43:17.021Z,14.00
2017-12-31T16:45:44.631Z,22.83
2017-12-31T16:48:12.201Z,11.70
2017-12-31T16:50:39.760Z,10.45
2017-12-31T16:53:07.367Z,12.57
2017-12-31T16:55:34.931Z,7.80
2017-12-31T16:58:02.496Z,16.75
2017-12-31T17:00:30.100Z,5.75
2017-12-31T17:02:57.679Z,7.20
2017-12-31T17:05:25.295Z,6.32
2017-12-31T17:07:52.856Z,4.82
2017-12-31T17:10:20.416Z,6.55
2017-12-31T17:12:48.015Z,6.00
2017-12-31T17:15:15.627Z,4.78
2017-12-31T17:17:43.178Z,9.38
2017-12-31T17:20:10.748Z,4.43
2017-12-31T17:22:38.370Z,10.35
2017-12-31T17:25:05.931Z,4.65
2017-12-31T17:27:34.317Z,6.15
2017-12-31T17:30:02.658Z,11.23
2017-12-31T17:32:30.228Z,16.12
2017-12-31T17:34:57.812Z,7.90
2017-12-31T17:37:25.423Z,13.65
2017-12-31T17:39:53.035Z,18.02
2017-12-31T17:42:20.626Z,10.57
2017-12-31T17:44:48.200Z,19.27
2017-12-31T17:47:15.805Z,21.75
2017-12-31T17:49:43.372Z,16.12
2017-12-31T17:52:10.972Z,18.45
2017-12-31T17:54:38.551Z,17.95
2017-12-31T17:57:06.154Z,18.62
2017-12-31T17:59:33.749Z,21.30
2017-12-31T18:02:01.343Z,16.85
2017-12-31T18:04:28.897Z,18.52
2017-12-31T18:06:56.484Z,18.10
2017-12-31T18:09:24.055Z,11.05
2017-12-31T18:11:51.655Z,11.98
2017-12-31T18:14:19.220Z,6.43
2017-12-31T18:16:46.843Z,10.98
2017-12-31T18:19:15.193Z,7.78
2017-12-31T18:21:42.745Z,11.18
2017-12-31T18:24:10.333Z,8.32
2017-12-31T18:26:38.740Z,15.75
2017-12-31T18:29:07.073Z,17.15
2017-12-31T18:31:34.670Z,13.85
2017-12-31T18:34:03.010Z,13.50
2017-12-31T18:36:30.605Z,8.70
2017-12-31T18:38:58.937Z,8.32
2017-12-31T18:41:26.538Z,9.20
2017-12-31T18:43:54.881Z,9.18
2017-12-31T18:46:23.227Z,7.72
2017-12-31T18:48:50.830Z,10.77
2017-12-31T18:51:18.390Z,7.20
2017-12-31T18:53:45.946Z,9.80
2017-12-31T18:56:13.544Z,10.13
2017-12-31T18:58:41.884Z,8.82
2017-12-31T19:01:09.450Z,7.53
2017-12-31T19:03:37.092Z,8.30
2017-12-31T19:06:04.657Z,8.95
2017-12-31T19:08:32.223Z,8.80
2017-12-31T19:10:59.852Z,11.23
2017-12-31T19:13:27.416Z,12.57
2017-12-31T19:15:55.012Z,10.93
2017-12-31T19:18:22.566Z,7.00
2017-12-31T19:20:50.160Z,13.10
2017-12-31T19:23:17.724Z,12.30
2017-12-31T19:25:46.096Z,10.80
2017-12-31T19:28:13.691Z,19.25
2017-12-31T19:30:41.299Z,15.38
2017-12-31T19:33:08.864Z,13.20
2017-12-31T19:35:36.429Z,9.75
2017-12-31T19:38:04.028Z,29.35
2017-12-31T19:40:32.376Z,20.25
2017-12-31T19:42:59.966Z,9.07
2017-12-31T19:45:28.292Z,12.10
2017-12-31T19:47:55.894Z,11.40
2017-12-31T19:50:24.262Z,10.10
2017-12-31T19:52:51.860Z,16.42
2017-12-31T19:55:20.176Z,11.18
2017-12-31T19:57:47.793Z,10.25
2017-12-31T20:00:16.108Z,5.53
2017-12-31T20:02:43.670Z,10.82
2017-12-31T20:05:11.290Z,6.55
2017-12-31T20:07:39.608Z,7.97
2017-12-31T20:10:07.165Z,8.40
2017-12-31T20:12:34.748Z,8.43
2017-12-31T20:15:02.328Z,8.32
2017-12-31T20:17:29.929Z,6.95
2017-12-31T20:19:57.527Z,8.50
2017-12-31T20:22:25.097Z,7.85
2017-12-31T20:24:52.700Z,13.00
2017-12-31T20:27:20.263Z,9.70
2017-12-31T20:29:47.880Z,11.52
2017-12-31T20:32:15.452Z,13.85
2017-12-31T20:34:43.070Z,6.37
2017-12-31T20:37:10.618Z,8.15
2017-12-31T20:39:38.204Z,8.00
2017-12-31T20:42:05.794Z,9.88
2017-12-31T20:44:33.343Z,7.07
2017-12-31T20:47:00.944Z,7.03
2017-12-31T20:49:28.512Z,12.50
2017-12-31T20:51:56.097Z,9.48
2017-12-31T20:54:24.458Z,6.20
2017-12-31T20:56:52.874Z,8.70
2017-12-31T20:59:20.468Z,13.50
2017-12-31T21:01:48.791Z,8.50
2017-12-31T21:04:16.389Z,11.10
2017-12-31T21:06:43.954Z,12.18
2017-12-31T21:09:11.520Z,7.07
2017-12-31T21:11:39.884Z,13.38
2017-12-31T21:14:07.451Z,20.40
2017-12-31T21:16:35.041Z,11.85
2017-12-31T21:19:03.395Z,11.73
2017-12-31T21:21:32.496Z,8.02
2017-12-31T21:24:00.836Z,10.90
2017-12-31T21:26:28.388Z,11.60
2017-12-31T21:28:55.984Z,12.37
2017-12-31T21:31:23.575Z,8.63
2017-12-31T21:33:52.008Z,12.37
2017-12-31T21:36:19.596Z,11.93
2017-12-31T21:38:47.154Z,8.70
2017-12-31T21:41:14.757Z,8.05
2017-12-31T21:43:42.304Z,7.47
2017-12-31T21:46:09.892Z,7.37
2017-12-31T21:48:37.440Z,7.28
2017-12-31T21:51:05.038Z,14.87
2017-12-31T21:53:32.593Z,11.12
2017-12-31T21:56:00.196Z,11.07
2017-12-31T21:58:28.558Z,13.95
2017-12-31T22:00:56.896Z,11.63
2017-12-31T22:03:24.494Z,10.18
2017-12-31T22:05:52.036Z,9.15
2017-12-31T22:08:19.636Z,12.93
2017-12-31T22:10:47.971Z,16.98
2017-12-31T22:13:15.535Z,20.40
2017-12-31T22:15:43.146Z,14.77
2017-12-31T22:18:10.707Z,23.67
2017-12-31T22:20:38.281Z,21.67
2017-12-31T22:23:06.646Z,12.73
2017-12-31T22:25:34.224Z,16.98
2017-12-31T22:28:01.815Z,16.65
2017-12-31T22:30:29.404Z,15.10
2017-12-31T22:32:56.965Z,16.83
2017-12-31T22:35:24.553Z,13.88
2017-12-31T22:37:52.165Z,13.70
2017-12-31T22:40:19.857Z,20.52
2017-12-31T22:42:48.187Z,26.55
2017-12-31T22:45:15.749Z,29.40
2017-12-31T22:47:43.364Z,24.92
2017-12-31T22:50:11.681Z,16.37
2017-12-31T22:52:39.318Z,22.70
2017-12-31T22:55:06.917Z,17.62
2017-12-31T22:57:34.456Z,53.97
2017-12-31T23:00:02.145Z,142.15
2017-12-31T23:02:29.717Z,236.20
2017-12-31T23:04:57.298Z,262.77
2017-12-31T23:07:25.676Z,282.05
2017-12-31T23:09:54.021Z,395.02
2017-12-31T23:12:21.641Z,453.45
2017-12-31T23:14:49.237Z,373.38
2017-12-31T23:17:16.836Z,357.83
2017-12-31T23:19:44.455Z,369.62
2017-12-31T23:22:12.038Z,209.18
2017-12-31T23:24:39.640Z,190.82
2017-12-31T23:27:08.179Z,185.43
2017-12-31T23:29:35.734Z,188.18
2017-12-31T23:32:03.313Z,153.73
2017-12-31T23:34:30.941Z,113.22
2017-12-31T23:36:58.500Z,83.68
2017-12-31T23:39:26.059Z,73.60
2017-12-31T23:41:53.658Z,73.50
2017-12-31T23:44:21.216Z,58.53
2017-12-31T23:46:48.777Z,58.42
2017-12-31T23:49:16.380Z,45.70
2017-12-31T23:51:44.062Z,31.40
2017-12-31T23:54:11.658Z,18.10
2017-12-31T23:56:39.274Z,17.25
2017-12-31T23:59:06.872Z,20.48
